sensor_id;sensor_type;location;lat;lon;timestamp;P1;durP1;ratioP1;P2;durP2;ratioP2
65053;SDS011;51639;47.828;35.038;2024-02-16T00:04:54;13.00;;;6.63;;
65053;SDS011;51639;47.828;35.038;2024-02-16T00:19:56;13.40;;;6.60;;
65053;SDS011;51639;47.828;35.038;2024-02-16T00:34:59;9.03;;;5.93;;
65053;SDS011;51639;47.828;35.038;2024-02-16T01:05:25;12.93;;;6.90;;
65053;SDS011;51639;47.828;35.038;2024-02-16T01:20:28;9.63;;;5.37;;
65053;SDS011;51639;47.828;35.038;2024-02-16T01:35:33;13.93;;;7.30;;
65053;SDS011;51639;47.828;35.038;2024-02-16T01:50:35;11.47;;;6.13;;
65053;SDS011;51639;47.828;35.038;2024-02-16T02:05:45;13.87;;;6.33;;
65053;SDS011;51639;47.828;35.038;2024-02-16T02:20:48;14.23;;;6.40;;
65053;SDS011;51639;47.828;35.038;2024-02-16T02:35:50;9.27;;;5.13;;
65053;SDS011;51639;47.828;35.038;2024-02-16T02:50:53;15.40;;;5.20;;
65053;SDS011;51639;47.828;35.038;2024-02-16T03:05:55;14.23;;;5.03;;
65053;SDS011;51639;47.828;35.038;2024-02-16T03:20:58;9.87;;;4.93;;
65053;SDS011;51639;47.828;35.038;2024-02-16T03:36:00;12.00;;;6.23;;
65053;SDS011;51639;47.828;35.038;2024-02-16T03:51:03;12.03;;;6.73;;
65053;SDS011;51639;47.828;35.038;2024-02-16T04:06:07;9.47;;;5.53;;
65053;SDS011;51639;47.828;35.038;2024-02-16T04:21:10;12.47;;;6.50;;
65053;SDS011;51639;47.828;35.038;2024-02-16T04:36:13;8.43;;;4.90;;
65053;SDS011;51639;47.828;35.038;2024-02-16T04:51:17;13.50;;;7.07;;
65053;SDS011;51639;47.828;35.038;2024-02-16T05:06:19;12.53;;;7.53;;
65053;SDS011;51639;47.828;35.038;2024-02-16T05:21:22;20.80;;;6.67;;
65053;SDS011;51639;47.828;35.038;2024-02-16T05:52:30;7.67;;;5.47;;
65053;SDS011;51639;47.828;35.038;2024-02-16T06:07:40;7.70;;;5.23;;
65053;SDS011;51639;47.828;35.038;2024-02-16T06:37:45;14.60;;;6.90;;
65053;SDS011;51639;47.828;35.038;2024-02-16T06:52:50;13.83;;;6.17;;
65053;SDS011;51639;47.828;35.038;2024-02-16T07:08:08;10.13;;;6.93;;
65053;SDS011;51639;47.828;35.038;2024-02-16T07:23:10;15.03;;;7.43;;
65053;SDS011;51639;47.828;35.038;2024-02-16T07:38:16;11.67;;;6.60;;
65053;SDS011;51639;47.828;35.038;2024-02-16T07:53:21;9.73;;;5.67;;
65053;SDS011;51639;47.828;35.038;2024-02-16T08:08:42;7.67;;;3.93;;
65053;SDS011;51639;47.828;35.038;2024-02-16T08:40:13;10.57;;;4.23;;
65053;SDS011;51639;47.828;35.038;2024-02-16T08:55:16;8.07;;;4.67;;
65053;SDS011;51639;47.828;35.038;2024-02-16T09:10:20;8.00;;;4.43;;
65053;SDS011;51639;47.828;35.038;2024-02-16T09:25:27;7.47;;;5.10;;
65053;SDS011;51639;47.828;35.038;2024-02-16T09:40:30;6.77;;;4.43;;
65053;SDS011;51639;47.828;35.038;2024-02-16T09:55:32;14.57;;;6.27;;
65053;SDS011;51639;47.828;35.038;2024-02-16T10:10:35;11.43;;;5.53;;
65053;SDS011;51639;47.828;35.038;2024-02-16T10:25:49;11.03;;;5.83;;
65053;SDS011;51639;47.828;35.038;2024-02-16T10:40:54;9.60;;;5.37;;
65053;SDS011;51639;47.828;35.038;2024-02-16T10:56:06;11.43;;;5.77;;
65053;SDS011;51639;47.828;35.038;2024-02-16T11:11:09;16.23;;;6.00;;
65053;SDS011;51639;47.828;35.038;2024-02-16T11:26:44;10.97;;;5.27;;
65053;SDS011;51639;47.828;35.038;2024-02-16T11:41:47;16.33;;;6.70;;
65053;SDS011;51639;47.828;35.038;2024-02-16T11:56:49;16.90;;;7.40;;
65053;SDS011;51639;47.828;35.038;2024-02-16T12:11:54;14.77;;;7.13;;
65053;SDS011;51639;47.828;35.038;2024-02-16T12:27:23;20.93;;;7.30;;
65053;SDS011;51639;47.828;35.038;2024-02-16T12:42:49;12.00;;;6.70;;
65053;SDS011;51639;47.828;35.038;2024-02-16T12:57:52;15.37;;;8.07;;
65053;SDS011;51639;47.828;35.038;2024-02-16T13:12:55;18.13;;;7.33;;
65053;SDS011;51639;47.828;35.038;2024-02-16T13:27:57;17.23;;;8.80;;
65053;SDS011;51639;47.828;35.038;2024-02-16T13:58:59;14.60;;;7.23;;
65053;SDS011;51639;47.828;35.038;2024-02-16T14:14:01;17.40;;;8.63;;
65053;SDS011;51639;47.828;35.038;2024-02-16T14:29:07;42.40;;;8.83;;
65053;SDS011;51639;47.828;35.038;2024-02-16T14:44:13;16.40;;;7.47;;
65053;SDS011;51639;47.828;35.038;2024-02-16T14:59:19;16.85;;;7.97;;
65053;SDS011;51639;47.828;35.038;2024-02-16T15:14:34;14.60;;;7.67;;
65053;SDS011;51639;47.828;35.038;2024-02-16T15:29:40;15.93;;;7.53;;
65053;SDS011;51639;47.828;35.038;2024-02-16T15:44:42;26.37;;;8.73;;
65053;SDS011;51639;47.828;35.038;2024-02-16T16:00:08;15.03;;;8.93;;
65053;SDS011;51639;47.828;35.038;2024-02-16T16:15:11;17.90;;;8.90;;
65053;SDS011;51639;47.828;35.038;2024-02-16T16:30:14;26.07;;;10.50;;
65053;SDS011;51639;47.828;35.038;2024-02-16T17:00:23;27.73;;;7.77;;
65053;SDS011;51639;47.828;35.038;2024-02-16T17:15:26;16.93;;;7.73;;
65053;SDS011;51639;47.828;35.038;2024-02-16T17:30:32;12.30;;;6.43;;
65053;SDS011;51639;47.828;35.038;2024-02-16T17:45:41;16.00;;;7.17;;
65053;SDS011;51639;47.828;35.038;2024-02-16T18:00:46;16.17;;;6.87;;
65053;SDS011;51639;47.828;35.038;2024-02-16T18:15:49;9.20;;;6.37;;
65053;SDS011;51639;47.828;35.038;2024-02-16T18:30:52;15.13;;;6.63;;
65053;SDS011;51639;47.828;35.038;2024-02-16T18:45:59;15.17;;;6.67;;
65053;SDS011;51639;47.828;35.038;2024-02-16T19:01:02;17.87;;;9.13;;
65053;SDS011;51639;47.828;35.038;2024-02-16T19:16:05;19.90;;;9.73;;
65053;SDS011;51639;47.828;35.038;2024-02-16T19:31:08;25.37;;;10.83;;
65053;SDS011;51639;47.828;35.038;2024-02-16T19:46:15;12.63;;;6.50;;
65053;SDS011;51639;47.828;35.038;2024-02-16T20:01:21;11.73;;;6.03;;
65053;SDS011;51639;47.828;35.038;2024-02-16T20:16:29;16.20;;;7.07;;
65053;SDS011;51639;47.828;35.038;2024-02-16T20:31:49;11.83;;;6.60;;
65053;SDS011;51639;47.828;35.038;2024-02-16T20:46:52;12.30;;;7.60;;
65053;SDS011;51639;47.828;35.038;2024-02-16T21:02:00;9.37;;;5.37;;
65053;SDS011;51639;47.828;35.038;2024-02-16T21:17:07;7.37;;;3.97;;
65053;SDS011;51639;47.828;35.038;2024-02-16T21:32:10;7.93;;;4.83;;
65053;SDS011;51639;47.828;35.038;2024-02-16T21:47:12;7.20;;;4.20;;
65053;SDS011;51639;47.828;35.038;2024-02-16T22:02:15;7.80;;;4.00;;
65053;SDS011;51639;47.828;35.038;2024-02-16T22:17:19;3.97;;;3.17;;
65053;SDS011;51639;47.828;35.038;2024-02-16T22:32:25;5.80;;;3.43;;
65053;SDS011;51639;47.828;35.038;2024-02-16T22:47:27;4.67;;;3.77;;
65053;SDS011;51639;47.828;35.038;2024-02-16T23:02:29;4.67;;;3.27;;
65053;SDS011;51639;47.828;35.038;2024-02-16T23:17:32;7.33;;;3.97;;
65053;SDS011;51639;47.828;35.038;2024-02-16T23:32:34;7.23;;;3.10;;
65053;SDS011;51639;47.828;35.038;2024-02-16T23:47:37;6.53;;;3.70;;
